AirportWindKnotsOPERATIONSMETAR
KBWI090815R(D) 10(A) 15L(A/D)-PROPS KBWI 241154Z 09008KT 10SM FEW060 12/06 A3030 RMK AO2 SLP261 T01170056 10117 20100 58004
KDCA07081 (D/A) 33 (D/A)-RJ/PROPS KDCA 241152Z 07008KT 040V110 10SM BKN044 OVC055 13/06 A3029 RMK AO2 SLP256 T01330056 10133 20128 58006
KIAD100101L/1C/1R (D/A) KIAD 241152Z 10010KT 10SM BKN038 BKN050 OVC120 13/06 A3027 RMK AO2 SLP248 T01280061 10128 20117 58007
KRDU090135L/5R (D/A) KRDU 241151Z 09013G22KT 10SM -RA BKN009 OVC017 14/14 A3002 RMK AO2 SLP163 P0009 60048 70052 T01440144 10144 20117 56017



The information contained on all pages of this website is to be used for flight simulation purposes only on the VATSIM network. It is not intended nor should it be used for real world navigation.This site is not affiliated with the FAA, the actual Washington Center or any governing aviation body. All content contained herein is approved only for use on the VATSIM network. ©2016 Virtual Washington ARTCC -- Source Code © 2016-2017 R. Rump, R. Murphy, W. Guisbond. Some scripts provided by VATEUD and VATUSA. Logo icons created by the Noun Project, CC 17.